createdAt,value
2023-02-06T00:00:34.592Z,9.30
2023-02-06T00:03:04.304Z,9.90
2023-02-06T00:05:36.837Z,10.70
2023-02-06T00:08:09.754Z,9.90
2023-02-06T00:10:39.541Z,10.10
2023-02-06T00:13:21.462Z,9.40
2023-02-06T00:15:52.412Z,9.10
2023-02-06T00:18:30.615Z,8.90
2023-02-06T00:21:02.332Z,10.00
2023-02-06T00:23:40.912Z,9.30
2023-02-06T00:26:13.767Z,9.10
2023-02-06T00:28:44.761Z,9.50
2023-02-06T00:31:16.106Z,9.40
2023-02-06T00:33:45.817Z,8.00
2023-02-06T00:36:14.758Z,8.00
2023-02-06T00:38:43.236Z,9.10
2023-02-06T00:41:12.429Z,8.00
2023-02-06T00:43:44.542Z,8.90
2023-02-06T00:46:15.702Z,10.10
2023-02-06T00:49:03.123Z,9.50
2023-02-06T00:51:33.924Z,9.40
2023-02-06T00:54:02.608Z,9.50
2023-02-06T00:56:35.185Z,8.30
2023-02-06T00:59:07.765Z,8.00
2023-02-06T01:01:37.871Z,7.60
2023-02-06T01:04:07.463Z,7.40
2023-02-06T01:06:57.660Z,8.00
2023-02-06T01:09:26.145Z,9.10
2023-02-06T01:11:57.783Z,8.70
2023-02-06T01:14:27.806Z,8.00
2023-02-06T01:16:56.676Z,7.70
2023-02-06T01:19:26.518Z,9.10
2023-02-06T01:21:56.256Z,8.30
2023-02-06T01:24:25.772Z,8.70
2023-02-06T01:26:54.966Z,9.40
2023-02-06T01:29:24.747Z,8.80
2023-02-06T01:31:54.188Z,7.80
2023-02-06T01:34:25.168Z,7.80
2023-02-06T01:36:54.178Z,7.70
2023-02-06T01:39:26.556Z,8.50
2023-02-06T01:41:57.319Z,8.00
2023-02-06T01:44:27.094Z,9.30
2023-02-06T01:46:56.755Z,8.40
2023-02-06T01:49:33.000Z,8.40
2023-02-06T01:52:19.110Z,8.70
2023-02-06T01:54:53.923Z,8.20
2023-02-06T01:57:26.193Z,7.60
2023-02-06T02:00:00.387Z,7.70
2023-02-06T02:02:29.471Z,8.20
2023-02-06T02:05:01.444Z,8.90
2023-02-06T02:07:33.342Z,9.70
2023-02-06T02:10:03.105Z,7.60
2023-02-06T02:12:50.809Z,9.20
2023-02-06T02:15:20.958Z,8.70
2023-02-06T02:20:47.192Z,9.20
2023-02-06T02:23:49.656Z,8.30
2023-02-06T02:26:57.259Z,8.10
2023-02-06T02:30:03.023Z,7.90
2023-02-06T02:33:18.359Z,8.40
2023-02-06T02:35:56.181Z,8.50
2023-02-06T02:38:37.515Z,7.90
2023-02-06T02:41:24.586Z,7.40
2023-02-06T02:44:08.622Z,8.80
2023-02-06T02:46:49.068Z,8.80
2023-02-06T02:49:25.358Z,8.50
2023-02-06T02:51:54.740Z,8.40
2023-02-06T02:54:23.240Z,7.90
2023-02-06T02:56:51.833Z,8.60
2023-02-06T02:59:29.771Z,9.90
2023-02-06T03:03:46.679Z,10.10
2023-02-06T03:06:40.020Z,9.70
2023-02-06T03:09:31.503Z,10.20
2023-02-06T03:12:12.409Z,9.70
2023-02-06T03:15:04.517Z,8.90
2023-02-06T03:17:49.695Z,9.30
2023-02-06T03:20:18.489Z,10.30
2023-02-06T03:22:49.427Z,10.50
2023-02-06T03:25:25.228Z,9.70
2023-02-06T03:27:53.714Z,9.10
2023-02-06T03:30:23.633Z,9.10
2023-02-06T03:33:01.942Z,9.60
2023-02-06T03:35:31.916Z,9.90
2023-02-06T03:38:00.433Z,10.00
2023-02-06T03:40:35.732Z,10.30
2023-02-06T03:43:04.569Z,9.90
2023-02-06T03:46:03.695Z,10.10
2023-02-06T03:48:35.222Z,11.60
2023-02-06T03:51:20.805Z,10.10
2023-02-06T03:53:50.447Z,12.10
2023-02-06T03:56:33.535Z,11.50
2023-02-06T03:59:02.818Z,9.70
2023-02-06T04:01:31.293Z,10.10
2023-02-06T04:04:02.357Z,11.00
2023-02-06T04:06:31.623Z,10.40
2023-02-06T04:09:00.590Z,10.60
2023-02-06T04:11:29.237Z,11.90
2023-02-06T04:13:58.642Z,10.90
2023-02-06T04:16:28.526Z,10.60
2023-02-06T04:19:01.473Z,10.40
2023-02-06T04:21:31.610Z,11.80
2023-02-06T04:24:00.200Z,10.60
2023-02-06T04:26:28.728Z,10.50
2023-02-06T04:28:58.676Z,10.80
2023-02-06T04:31:29.613Z,10.90
2023-02-06T04:33:58.665Z,10.90
2023-02-06T04:36:36.845Z,11.00
2023-02-06T04:39:05.384Z,12.00
2023-02-06T04:41:42.290Z,11.30
2023-02-06T04:44:12.211Z,11.10
2023-02-06T04:47:01.857Z,10.70
2023-02-06T04:49:31.288Z,9.90
2023-02-06T04:52:12.189Z,10.50
2023-02-06T04:54:44.063Z,10.70
2023-02-06T04:57:17.717Z,11.00
2023-02-06T04:59:49.638Z,10.80
2023-02-06T05:02:20.895Z,11.20
2023-02-06T05:04:50.214Z,9.90
2023-02-06T05:07:30.621Z,10.10
2023-02-06T05:10:04.661Z,10.90
2023-02-06T05:12:37.142Z,10.20
2023-02-06T05:15:08.594Z,8.70
2023-02-06T05:17:41.741Z,9.80
2023-02-06T05:20:16.142Z,9.10
2023-02-06T05:22:47.041Z,8.70
2023-02-06T05:25:17.909Z,8.80
2023-02-06T05:27:48.369Z,9.20
2023-02-06T05:30:18.433Z,9.80
2023-02-06T05:32:46.930Z,9.40
2023-02-06T05:35:15.517Z,10.00
2023-02-06T05:37:56.084Z,9.00
2023-02-06T05:40:25.862Z,8.80
2023-02-06T05:42:58.751Z,8.60
2023-02-06T05:45:30.693Z,8.90
2023-02-06T05:48:10.927Z,9.40
2023-02-06T05:50:40.051Z,8.80
2023-02-06T05:53:18.569Z,10.40
2023-02-06T05:55:52.694Z,9.00
2023-02-06T05:58:23.714Z,12.00
2023-02-06T06:00:53.424Z,9.70
2023-02-06T06:03:22.901Z,9.30
2023-02-06T06:06:08.004Z,9.00
2023-02-06T06:08:45.503Z,8.20
2023-02-06T06:11:14.952Z,8.30
2023-02-06T06:13:47.966Z,8.20
2023-02-06T06:16:23.085Z,9.40
2023-02-06T06:18:54.199Z,9.50
2023-02-06T06:21:23.247Z,9.20
2023-02-06T06:23:52.622Z,8.90
2023-02-06T06:26:22.598Z,8.90
2023-02-06T06:28:54.167Z,9.10
2023-02-06T06:31:25.816Z,9.00
2023-02-06T06:33:56.766Z,9.00
2023-02-06T06:36:28.863Z,10.30
2023-02-06T06:39:02.393Z,10.20
2023-02-06T06:41:33.469Z,8.70
2023-02-06T06:44:03.000Z,9.60
2023-02-06T06:46:33.821Z,8.30
2023-02-06T06:49:04.068Z,8.50
2023-02-06T06:51:33.871Z,8.70
2023-02-06T06:54:03.714Z,9.70
2023-02-06T06:56:35.229Z,11.10
2023-02-06T06:59:08.890Z,8.90
2023-02-06T07:01:43.289Z,8.20
2023-02-06T07:04:13.297Z,8.80
2023-02-06T07:06:42.340Z,9.50
2023-02-06T07:09:11.725Z,9.50
2023-02-06T07:11:45.406Z,8.50
2023-02-06T07:14:18.407Z,8.40
2023-02-06T07:16:49.051Z,10.10
2023-02-06T07:19:24.200Z,12.60
2023-02-06T07:21:54.318Z,8.00
2023-02-06T07:24:26.181Z,10.40
2023-02-06T07:26:58.297Z,8.60
2023-02-06T07:29:29.339Z,8.50
2023-02-06T07:32:12.498Z,9.60
2023-02-06T07:34:44.710Z,7.30
2023-02-06T07:37:18.656Z,7.80
2023-02-06T07:39:52.364Z,6.80
2023-02-06T07:42:47.948Z,8.70
2023-02-06T07:45:32.756Z,7.10
2023-02-06T07:48:16.467Z,8.00
2023-02-06T07:51:22.512Z,6.70
2023-02-06T07:54:09.956Z,7.60
2023-02-06T07:57:20.055Z,7.60
2023-02-06T07:59:43.101Z,7.40
2023-02-06T08:02:31.728Z,7.50
2023-02-06T08:05:27.344Z,6.50
2023-02-06T08:07:58.043Z,7.10
2023-02-06T08:10:30.519Z,8.10
2023-02-06T08:13:20.210Z,6.90
2023-02-06T08:16:09.379Z,7.50
2023-02-06T08:19:03.946Z,7.30
2023-02-06T08:21:40.244Z,6.50
2023-02-06T08:24:22.012Z,7.40
2023-02-06T08:26:58.416Z,7.60
2023-02-06T08:29:48.769Z,7.10
2023-02-06T08:33:08.584Z,7.40
2023-02-06T08:35:40.520Z,6.60
2023-02-06T08:38:10.150Z,7.50
2023-02-06T08:40:43.409Z,7.50
2023-02-06T08:43:15.267Z,6.70
2023-02-06T08:45:54.433Z,5.70
2023-02-06T08:48:30.341Z,6.20
2023-02-06T08:53:57.156Z,6.70
2023-02-06T08:56:46.765Z,6.20
2023-02-06T08:59:23.261Z,8.20
2023-02-06T09:02:06.980Z,6.30
2023-02-06T09:04:47.941Z,5.90
2023-02-06T09:07:24.652Z,5.80
2023-02-06T09:09:58.529Z,5.90
2023-02-06T09:12:30.135Z,6.30
2023-02-06T09:15:07.444Z,6.00
2023-02-06T09:17:45.171Z,5.60
2023-02-06T09:20:21.566Z,5.50
2023-02-06T09:22:56.103Z,5.20
2023-02-06T09:25:30.303Z,5.00
2023-02-06T09:28:01.408Z,4.50
2023-02-06T09:33:13.154Z,5.50
2023-02-06T09:35:46.134Z,4.30
2023-02-06T09:38:21.206Z,5.10
2023-02-06T09:41:16.886Z,4.30
2023-02-06T09:44:14.872Z,4.00
2023-02-06T09:47:22.223Z,3.80
2023-02-06T09:50:08.060Z,4.40
2023-02-06T09:53:23.930Z,4.10
2023-02-06T09:56:48.201Z,3.80
2023-02-06T10:00:05.662Z,3.20
2023-02-06T10:03:05.054Z,3.60
2023-02-06T10:05:59.283Z,3.50
2023-02-06T10:08:39.056Z,3.40
2023-02-06T10:11:34.163Z,3.60
2023-02-06T10:14:35.539Z,3.40
2023-02-06T10:17:30.542Z,3.70
2023-02-06T10:20:43.899Z,3.20
2023-02-06T10:23:48.537Z,4.00
2023-02-06T10:26:23.938Z,3.60
2023-02-06T10:29:09.124Z,3.70
2023-02-06T10:32:27.785Z,3.20
2023-02-06T10:35:37.287Z,3.70
2023-02-06T10:38:22.369Z,3.50
2023-02-06T10:41:37.566Z,2.90
2023-02-06T10:44:48.500Z,3.30
2023-02-06T10:51:58.084Z,4.80
2023-02-06T10:54:40.514Z,3.50
2023-02-06T10:57:17.799Z,3.40
2023-02-06T10:59:53.806Z,3.50
2023-02-06T11:02:44.217Z,3.20
2023-02-06T11:05:19.701Z,3.60
2023-02-06T11:07:56.198Z,3.20
2023-02-06T11:10:43.998Z,3.60
2023-02-06T11:13:42.595Z,5.00
2023-02-06T11:16:18.820Z,3.70
2023-02-06T11:30:16.864Z,3.00
2023-02-06T11:32:59.005Z,3.10
2023-02-06T11:36:00.782Z,3.90
2023-02-06T11:39:09.610Z,3.90
2023-02-06T11:42:04.797Z,3.40
2023-02-06T11:44:54.707Z,4.50
2023-02-06T11:47:40.502Z,4.00
2023-02-06T11:50:45.216Z,4.40
2023-02-06T11:53:19.892Z,4.50
2023-02-06T11:56:18.841Z,4.30
2023-02-06T11:59:27.691Z,4.00
2023-02-06T12:02:30.839Z,3.60
2023-02-06T12:05:15.185Z,4.20
2023-02-06T12:07:49.509Z,4.00
2023-02-06T12:10:20.681Z,4.50
2023-02-06T12:23:26.658Z,4.10
2023-02-06T12:26:17.010Z,3.70
2023-02-06T12:29:21.350Z,4.70
2023-02-06T12:32:20.332Z,4.30
2023-02-06T12:42:41.199Z,4.30
2023-02-06T12:50:22.989Z,4.90
2023-02-06T12:53:32.603Z,3.80
2023-02-06T12:57:00.763Z,4.30
2023-02-06T13:00:06.064Z,4.10
2023-02-06T13:03:20.356Z,3.40
2023-02-06T13:06:24.892Z,4.50
2023-02-06T13:09:06.847Z,3.50
2023-02-06T13:11:48.776Z,4.20
2023-02-06T13:14:29.629Z,3.60
2023-02-06T13:17:12.949Z,3.50
2023-02-06T13:19:42.517Z,3.10
2023-02-06T13:22:18.922Z,3.10
2023-02-06T13:25:47.879Z,2.70
2023-02-06T13:28:21.919Z,2.50
2023-02-06T13:31:22.074Z,3.40
2023-02-06T13:34:09.980Z,2.70
2023-02-06T13:36:43.824Z,2.70
2023-02-06T13:39:35.634Z,3.40
2023-02-06T13:43:01.730Z,3.30
2023-02-06T13:46:03.892Z,3.70
2023-02-06T13:51:33.359Z,3.40
2023-02-06T13:54:23.822Z,3.80
2023-02-06T13:57:30.001Z,5.20
2023-02-06T14:00:13.361Z,3.80
2023-02-06T14:02:49.500Z,4.00
2023-02-06T14:05:28.571Z,4.30
2023-02-06T14:08:10.058Z,4.00
2023-02-06T14:11:11.170Z,3.90
2023-02-06T14:13:53.484Z,3.80
2023-02-06T14:16:59.465Z,4.40
2023-02-06T14:19:41.080Z,4.10
2023-02-06T14:22:27.607Z,4.10
2023-02-06T14:25:08.072Z,3.70
2023-02-06T14:28:06.939Z,3.30
2023-02-06T14:31:14.169Z,3.90
2023-02-06T14:34:03.162Z,3.60
2023-02-06T14:37:21.705Z,3.80
2023-02-06T14:40:05.098Z,3.70
2023-02-06T14:43:37.362Z,4.30
2023-02-06T14:46:16.742Z,3.70
2023-02-06T14:48:56.982Z,4.70
2023-02-06T14:51:34.795Z,3.80
2023-02-06T14:54:08.275Z,3.70
2023-02-06T14:56:44.238Z,3.50
2023-02-06T14:59:18.554Z,3.30
2023-02-06T15:01:47.633Z,4.10
2023-02-06T15:04:27.510Z,3.80
2023-02-06T15:07:08.643Z,2.90
2023-02-06T15:09:38.767Z,4.30
2023-02-06T15:12:24.673Z,3.70
2023-02-06T15:15:20.189Z,4.90
2023-02-06T15:18:01.509Z,4.90
2023-02-06T15:20:44.577Z,4.20
2023-02-06T15:23:29.365Z,4.00
2023-02-06T15:26:41.575Z,4.90
2023-02-06T15:29:26.660Z,5.00
2023-02-06T15:32:04.893Z,4.40
2023-02-06T15:34:35.013Z,5.00
2023-02-06T15:37:35.195Z,4.50
2023-02-06T15:40:44.353Z,4.70
2023-02-06T15:46:15.412Z,4.30
2023-02-06T15:48:53.375Z,4.60
2023-02-06T15:51:29.865Z,4.20
2023-02-06T15:54:16.030Z,4.20
2023-02-06T15:56:54.716Z,4.30
2023-02-06T15:59:27.394Z,4.10
2023-02-06T16:04:38.171Z,4.40
2023-02-06T16:07:29.593Z,4.00
2023-02-06T16:11:28.479Z,3.60
2023-02-06T16:14:07.493Z,4.60
2023-02-06T16:16:40.096Z,4.70
2023-02-06T16:19:58.638Z,3.70
2023-02-06T16:22:38.160Z,4.80
2023-02-06T16:25:34.480Z,4.60
2023-02-06T16:28:05.703Z,4.40
2023-02-06T16:30:38.434Z,4.30
2023-02-06T16:33:36.458Z,4.40
2023-02-06T16:36:30.174Z,4.70
2023-02-06T16:39:06.345Z,5.20
2023-02-06T16:41:48.422Z,5.70
2023-02-06T16:44:21.296Z,6.00
2023-02-06T16:47:05.861Z,6.20
2023-02-06T16:49:50.305Z,9.10
2023-02-06T16:52:53.528Z,5.90
2023-02-06T16:55:30.519Z,5.00
2023-02-06T16:58:02.640Z,4.40
2023-02-06T17:00:43.803Z,4.10
2023-02-06T17:03:18.571Z,4.30
2023-02-06T17:05:54.392Z,5.10
2023-02-06T17:08:29.274Z,4.40
2023-02-06T17:16:30.289Z,4.30
2023-02-06T17:19:05.680Z,4.90
2023-02-06T17:21:37.633Z,5.90
2023-02-06T17:24:06.520Z,6.80
2023-02-06T17:26:41.376Z,7.20
2023-02-06T17:29:16.091Z,5.30
2023-02-06T17:31:49.570Z,5.60
2023-02-06T17:34:38.341Z,5.20
2023-02-06T17:37:36.929Z,4.40
2023-02-06T17:40:05.228Z,4.90
2023-02-06T17:42:38.876Z,4.80
2023-02-06T17:45:47.446Z,5.10
2023-02-06T17:48:37.974Z,6.50
2023-02-06T17:51:30.000Z,5.50
2023-02-06T17:54:06.490Z,5.80
2023-02-06T17:56:44.350Z,4.90
2023-02-06T17:59:12.102Z,6.80
2023-02-06T18:01:42.063Z,5.60
2023-02-06T18:04:31.149Z,5.70
2023-02-06T18:07:22.332Z,5.40
2023-02-06T18:09:55.420Z,5.90
2023-02-06T18:12:23.995Z,5.80
2023-02-06T18:15:01.601Z,5.40
2023-02-06T18:17:33.036Z,5.80
2023-02-06T18:22:47.224Z,5.90
2023-02-06T18:25:18.925Z,5.70
2023-02-06T18:27:51.193Z,6.20
2023-02-06T18:30:25.171Z,5.90
2023-02-06T18:33:02.582Z,6.40
2023-02-06T18:35:46.493Z,6.10
2023-02-06T18:39:08.736Z,5.30
2023-02-06T18:42:02.891Z,5.70
2023-02-06T18:44:32.826Z,4.70
2023-02-06T18:47:30.694Z,5.00
2023-02-06T18:50:03.770Z,4.70
2023-02-06T18:52:47.794Z,4.40
2023-02-06T18:55:30.936Z,4.50
2023-02-06T18:58:07.695Z,4.70
2023-02-06T19:00:44.125Z,4.60
2023-02-06T19:03:20.589Z,4.80
2023-02-06T19:05:51.442Z,5.40
2023-02-06T19:08:25.600Z,4.30
2023-02-06T19:11:00.015Z,4.80
2023-02-06T19:13:39.853Z,4.80
2023-02-06T19:16:13.024Z,5.10
2023-02-06T19:18:50.970Z,4.90
2023-02-06T19:21:23.727Z,5.80
2023-02-06T19:26:53.039Z,6.10
2023-02-06T19:29:35.075Z,6.10
2023-02-06T19:32:10.131Z,5.40
2023-02-06T19:34:42.672Z,6.50
2023-02-06T19:37:18.512Z,6.10
2023-02-06T19:39:53.793Z,6.40
2023-02-06T19:42:37.824Z,6.20
2023-02-06T19:45:19.282Z,6.00
2023-02-06T19:47:51.175Z,5.70
2023-02-06T19:50:25.557Z,5.20
2023-02-06T19:56:08.106Z,6.50
2023-02-06T19:58:48.003Z,6.50
2023-02-06T20:01:37.643Z,6.80
2023-02-06T20:04:17.194Z,5.90
2023-02-06T20:06:56.267Z,6.00
2023-02-06T20:16:30.401Z,6.20
2023-02-06T20:19:18.521Z,6.10
2023-02-06T20:21:51.514Z,7.00
2023-02-06T20:24:29.019Z,7.30
2023-02-06T20:27:12.847Z,6.50
2023-02-06T20:29:47.131Z,6.50
2023-02-06T20:32:16.107Z,6.90
2023-02-06T20:34:45.041Z,6.90
2023-02-06T20:37:12.963Z,7.20
2023-02-06T20:39:44.316Z,7.50
2023-02-06T20:42:11.999Z,6.60
2023-02-06T20:44:40.878Z,7.30
2023-02-06T20:50:19.826Z,6.10
2023-02-06T20:52:50.952Z,6.60
2023-02-06T20:55:32.039Z,6.60
2023-02-06T20:58:09.099Z,6.90
2023-02-06T21:00:38.626Z,6.10
2023-02-06T21:03:13.908Z,6.90
2023-02-06T21:05:42.066Z,7.10
2023-02-06T21:08:22.680Z,6.40
2023-02-06T21:10:54.594Z,7.50
2023-02-06T21:13:21.647Z,7.10
2023-02-06T21:16:01.180Z,7.00
2023-02-06T21:18:35.255Z,6.60
2023-02-06T21:21:09.281Z,6.70
2023-02-06T21:23:42.128Z,7.00
2023-02-06T21:26:12.491Z,6.50
2023-02-06T21:28:44.393Z,7.70
2023-02-06T21:31:15.148Z,6.20
2023-02-06T21:36:23.197Z,6.50
2023-02-06T21:38:54.984Z,7.10
2023-02-06T21:41:26.905Z,7.50
2023-02-06T21:43:59.545Z,7.20
2023-02-06T21:46:42.426Z,8.50
2023-02-06T21:49:15.193Z,8.30
2023-02-06T21:51:56.005Z,7.40
2023-02-06T22:01:41.292Z,6.40
2023-02-06T22:04:11.274Z,6.90
2023-02-06T22:06:43.599Z,7.30
2023-02-06T22:09:16.061Z,6.60
2023-02-06T22:11:45.157Z,7.70
2023-02-06T22:14:20.539Z,7.30
2023-02-06T22:17:09.942Z,7.80
2023-02-06T22:19:38.994Z,8.10
2023-02-06T22:22:08.765Z,7.40
2023-02-06T22:24:35.816Z,8.00
2023-02-06T22:27:05.039Z,7.80
2023-02-06T22:29:33.195Z,7.90
2023-02-06T22:32:12.722Z,7.60
2023-02-06T22:34:42.778Z,8.10
2023-02-06T22:37:13.506Z,8.50
2023-02-06T22:39:43.529Z,6.90
2023-02-06T22:42:17.928Z,8.50
2023-02-06T22:44:50.413Z,8.60
2023-02-06T22:47:19.408Z,9.90
2023-02-06T22:49:46.842Z,10.50
2023-02-06T22:52:33.420Z,10.70
2023-02-06T22:55:06.255Z,10.10
2023-02-06T22:57:37.694Z,10.50
2023-02-06T23:00:08.896Z,9.90
2023-02-06T23:02:40.159Z,9.40
2023-02-06T23:05:14.275Z,10.50
2023-02-06T23:07:41.465Z,11.60
2023-02-06T23:10:09.837Z,9.90
2023-02-06T23:12:37.623Z,10.30
2023-02-06T23:15:30.221Z,10.30
2023-02-06T23:18:01.678Z,11.70
2023-02-06T23:20:30.153Z,10.10
2023-02-06T23:22:58.222Z,10.10
2023-02-06T23:25:25.395Z,10.20
2023-02-06T23:27:52.736Z,11.20
2023-02-06T23:30:22.977Z,11.10
2023-02-06T23:32:51.839Z,12.70
2023-02-06T23:35:19.142Z,10.60
2023-02-06T23:37:46.949Z,11.70
2023-02-06T23:40:14.458Z,11.50
2023-02-06T23:42:44.884Z,12.20
2023-02-06T23:45:12.601Z,12.70
2023-02-06T23:47:40.926Z,12.10
2023-02-06T23:50:08.662Z,12.10
2023-02-06T23:52:40.035Z,11.40
2023-02-06T23:55:08.386Z,12.50
2023-02-06T23:57:38.322Z,13.50
